Time;durP1;ratioP1;P1;durP2;ratioP2;P2;SDS_P1;SDS_P2;PMS_P1;PMS_P2;Temp;Humidity;BMP_temperature;BMP_pressure;BME280_temperature;BME280_humidity;BME280_pressure;Samples;Min_cycle;Max_cycle;Signal;HPM_P1;HPM_P2
2022/07/18 00:00:19;;;;;;;4.33;3.00;;;;;;;19.25;65.25;98876.19;4111813;28;20656;-86
2022/07/18 00:02:23;;;;;;;3.73;2.97;;;;;;;19.21;66.04;98869.50;4124086;28;20711;-85
2022/07/18 00:04:26;;;;;;;3.20;2.80;;;;;;;19.18;66.02;98870.59;4112568;28;20664;-85
2022/07/18 00:06:30;;;;;;;4.07;3.20;;;;;;;19.14;65.39;98871.00;4105133;28;20716;-85
2022/07/18 00:08:33;;;;;;;4.20;2.63;;;;;;;19.07;64.37;98873.38;4108641;28;20653;-85
2022/07/18 00:10:36;;;;;;;3.43;3.03;;;;;;;19.01;65.44;98871.28;4111581;28;20726;-85
2022/07/18 00:12:39;;;;;;;3.60;3.20;;;;;;;18.88;65.25;98862.75;4109048;28;20653;-85
2022/07/18 00:14:42;;;;;;;3.93;3.00;;;;;;;18.80;66.16;98864.41;4105786;28;20653;-85
2022/07/18 00:16:47;;;;;;;5.47;3.00;;;;;;;18.77;66.16;98863.84;4124954;28;20663;-85
2022/07/18 00:18:51;;;;;;;3.60;2.83;;;;;;;18.75;66.15;98865.78;4105903;28;20852;-85
2022/07/18 00:20:54;;;;;;;3.83;2.77;;;;;;;18.75;64.94;98871.06;4121269;28;20647;-85
2022/07/18 00:22:57;;;;;;;3.93;2.80;;;;;;;18.74;65.91;98872.88;4125107;28;20634;-85
2022/07/18 00:25:00;;;;;;;3.77;2.80;;;;;;;18.74;65.84;98875.53;4125966;28;20672;-85
2022/07/18 00:27:04;;;;;;;3.23;2.53;;;;;;;18.76;65.32;98873.56;4111363;28;20711;-85
2022/07/18 00:29:07;;;;;;;3.40;2.90;;;;;;;18.78;65.33;98878.72;4110227;28;20647;-85
2022/07/18 00:31:10;;;;;;;5.23;2.87;;;;;;;18.76;66.31;98873.56;4107527;28;20667;-86
2022/07/18 00:33:14;;;;;;;4.57;2.90;;;;;;;18.75;65.41;98871.91;4126296;28;21068;-85
2022/07/18 00:35:17;;;;;;;4.30;3.00;;;;;;;18.73;65.31;98868.56;4120328;28;21227;-86
2022/07/18 00:37:20;;;;;;;4.33;3.20;;;;;;;18.71;64.16;98873.16;4124052;28;21295;-85
2022/07/18 00:39:24;;;;;;;3.77;2.80;;;;;;;18.70;64.62;98874.13;4110355;28;20663;-85
2022/07/18 00:41:27;;;;;;;4.30;3.30;;;;;;;18.70;65.18;98876.78;4109258;28;20658;-85
2022/07/18 00:43:30;;;;;;;3.97;2.97;;;;;;;18.67;65.66;98882.34;4109203;28;21102;-86
2022/07/18 00:45:33;;;;;;;2.90;2.50;;;;;;;18.63;65.25;98880.09;4124844;28;20666;-85
2022/07/18 00:47:37;;;;;;;4.03;2.87;;;;;;;18.57;65.33;98880.63;4121291;28;21269;-85
2022/07/18 00:49:41;;;;;;;4.83;2.70;;;;;;;18.49;65.69;98876.03;4126715;28;20635;-85
2022/07/18 00:51:44;;;;;;;4.77;3.00;;;;;;;18.43;65.84;98870.41;4111047;28;20652;-85
2022/07/18 00:53:48;;;;;;;4.00;2.90;;;;;;;18.40;66.25;98865.41;4109477;28;21030;-85
2022/07/18 00:55:53;;;;;;;4.40;3.17;;;;;;;18.40;66.06;98869.84;4110412;28;20652;-85
2022/07/18 00:57:56;;;;;;;6.10;2.80;;;;;;;18.38;65.47;98871.81;4112463;28;20745;-85
2022/07/18 01:02:20;;;;;;;4.37;3.10;;;;;;;18.35;66.11;98877.34;4126943;28;21274;-86
2022/07/18 01:04:25;;;;;;;4.43;3.20;;;;;;;18.31;66.16;98875.94;4127251;28;20673;-85
2022/07/18 01:06:29;;;;;;;3.30;3.00;;;;;;;18.27;67.23;98874.56;4127528;28;21269;-85
2022/07/18 01:08:33;;;;;;;4.50;3.17;;;;;;;18.26;65.98;98867.59;4123986;28;21080;-85
2022/07/18 01:10:36;;;;;;;3.70;3.07;;;;;;;18.22;65.78;98869.66;4123084;28;21041;-85
2022/07/18 01:12:39;;;;;;;4.97;3.43;;;;;;;18.16;65.48;98870.19;4106832;28;21217;-86
2022/07/18 01:14:42;;;;;;;4.83;3.30;;;;;;;18.10;66.71;98873.31;4123950;28;20694;-85
2022/07/18 01:16:45;;;;;;;3.57;3.03;;;;;;;18.02;66.87;98869.66;4124350;28;20648;-85
2022/07/18 01:18:49;;;;;;;3.67;3.17;;;;;;;17.94;67.17;98875.59;4125906;28;20701;-85
2022/07/18 01:20:54;;;;;;;4.20;3.17;;;;;;;17.92;68.56;98874.06;4125117;28;20694;-85
2022/07/18 01:22:57;;;;;;;4.60;3.27;;;;;;;17.92;67.16;98874.06;4108013;28;20656;-85
2022/07/18 01:25:00;;;;;;;3.47;2.70;;;;;;;17.92;66.92;98876.72;4125065;28;21059;-85
2022/07/18 01:27:03;;;;;;;4.20;2.80;;;;;;;17.92;68.12;98866.16;4125584;28;20709;-86
2022/07/18 01:29:07;;;;;;;5.13;2.83;;;;;;;17.92;66.77;98867.94;4124031;28;21226;-85
2022/07/18 01:31:10;;;;;;;3.27;2.80;;;;;;;17.90;68.41;98875.97;4110761;28;20664;-85
2022/07/18 01:33:13;;;;;;;4.70;2.90;;;;;;;17.90;68.50;98872.53;4105209;28;21073;-85
2022/07/18 01:35:16;;;;;;;5.20;2.70;;;;;;;17.91;66.16;98871.56;4106862;28;21305;-86
2022/07/18 01:37:20;;;;;;;3.90;2.80;;;;;;;17.87;66.50;98868.31;4111098;28;20790;-85
2022/07/18 01:39:23;;;;;;;5.47;3.10;;;;;;;17.85;66.56;98872.09;4124312;28;20679;-85
2022/07/18 01:41:26;;;;;;;3.70;2.67;;;;;;;17.77;66.51;98861.31;4125624;28;20654;-85
2022/07/18 01:43:29;;;;;;;4.37;3.07;;;;;;;17.69;68.12;98872.53;4110216;28;20654;-86
2022/07/18 01:45:32;;;;;;;5.53;3.10;;;;;;;17.66;67.79;98867.50;4123030;28;20957;-86
2022/07/18 01:47:35;;;;;;;4.00;2.90;;;;;;;17.65;68.18;98876.41;4109308;28;20663;-85
2022/07/18 01:49:39;;;;;;;3.43;3.13;;;;;;;17.62;68.10;98874.03;4109795;28;20639;-85
2022/07/18 01:51:45;;;;;;;5.63;3.27;;;;;;;17.58;68.79;98875.22;4123953;28;20654;-85
2022/07/18 01:53:58;;;;;;;3.83;2.73;;;;;;;17.52;68.26;98870.47;4124433;28;20654;-85
2022/07/18 01:56:01;;;;;;;4.10;3.30;;;;;;;17.48;70.13;98874.34;4110375;28;20657;-85
2022/07/18 01:58:05;;;;;;;4.03;3.00;;;;;;;17.47;68.80;98880.56;4104629;28;20661;-85
2022/07/18 02:00:11;;;;;;;3.40;2.90;;;;;;;17.43;69.99;98883.59;4123011;28;20650;-85
2022/07/18 02:02:14;;;;;;;5.30;3.03;;;;;;;17.39;69.53;98883.97;4107974;28;20740;-85
2022/07/18 02:04:17;;;;;;;3.67;3.20;;;;;;;17.35;68.81;98877.25;4105328;28;20668;-86
2022/07/18 02:06:20;;;;;;;4.47;3.03;;;;;;;17.33;69.34;98882.66;4113942;28;20649;-85
2022/07/18 02:08:23;;;;;;;7.70;3.60;;;;;;;17.33;68.22;98879.22;4110600;28;20662;-85
2022/07/18 02:10:28;;;;;;;3.50;2.93;;;;;;;17.28;68.55;98886.66;4127154;28;20653;-85
2022/07/18 02:12:31;;;;;;;3.90;3.30;;;;;;;17.26;69.02;98884.16;4109986;28;20682;-85
2022/07/18 02:14:34;;;;;;;3.80;3.40;;;;;;;17.22;68.66;98877.44;4111612;28;21226;-85
2022/07/18 02:16:37;;;;;;;5.57;3.33;;;;;;;17.15;70.38;98881.50;4112857;28;20661;-85
2022/07/18 02:18:40;;;;;;;4.47;3.23;;;;;;;17.09;68.26;98879.41;4109461;28;21053;-85
2022/07/18 02:20:45;;;;;;;5.10;3.20;;;;;;;17.03;69.63;98872.00;4114263;28;20664;-85
2022/07/18 02:22:48;;;;;;;4.83;3.30;;;;;;;17.00;69.17;98876.66;4108409;28;21029;-86
2022/07/18 02:24:51;;;;;;;7.57;3.23;;;;;;;16.99;69.97;98877.66;4125907;28;20694;-85
2022/07/18 02:26:56;;;;;;;4.80;3.20;;;;;;;16.98;68.98;98878.59;4107118;28;20670;-86
2022/07/18 02:28:59;;;;;;;4.80;2.90;;;;;;;16.98;70.35;98888.31;4123435;28;20637;-85
2022/07/18 02:31:02;;;;;;;5.40;3.60;;;;;;;16.95;70.00;98889.38;4124008;28;20681;-85
2022/07/18 02:33:05;;;;;;;4.40;2.80;;;;;;;16.92;70.93;98883.53;4123181;28;20746;-85
2022/07/18 02:35:10;;;;;;;4.20;3.07;;;;;;;16.85;69.20;98887.63;4125647;28;21002;-85
2022/07/18 02:37:13;;;;;;;4.33;3.13;;;;;;;16.85;70.40;98883.16;4129485;28;20672;-84
2022/07/18 02:39:16;;;;;;;5.90;3.00;;;;;;;16.84;70.06;98885.94;4112025;28;20649;-85
2022/07/18 02:41:19;;;;;;;3.30;2.70;;;;;;;16.83;69.63;98887.75;4112906;28;20628;-85
2022/07/18 02:43:23;;;;;;;5.10;3.03;;;;;;;16.81;70.48;98886.19;4131605;28;21007;-85
2022/07/18 02:45:26;;;;;;;3.77;3.10;;;;;;;16.75;70.36;98895.44;4130344;28;20652;-85
2022/07/18 02:47:29;;;;;;;4.80;3.10;;;;;;;16.67;68.18;98891.72;4131169;28;20654;-85
2022/07/18 02:49:33;;;;;;;3.37;2.93;;;;;;;16.57;70.19;98891.63;4115379;28;20649;-85
2022/07/18 02:51:36;;;;;;;6.03;3.10;;;;;;;16.50;70.58;98882.53;4125871;28;20651;-85
2022/07/18 02:53:39;;;;;;;4.97;3.13;;;;;;;16.44;70.48;98891.88;4112350;28;20633;-85
2022/07/18 02:55:42;;;;;;;6.80;3.20;;;;;;;16.40;70.10;98887.81;4113893;28;20646;-85
2022/07/18 02:57:45;;;;;;;6.37;3.30;;;;;;;16.38;71.85;98892.38;4129623;28;20796;-85
2022/07/18 02:59:51;;;;;;;3.30;2.90;;;;;;;16.36;70.21;98891.66;4115020;28;20682;-85
2022/07/18 03:01:54;;;;;;;5.33;3.20;;;;;;;16.36;70.07;98894.28;4114982;28;21319;-85
2022/07/18 03:03:57;;;;;;;6.33;3.03;;;;;;;16.31;69.96;98888.53;4114784;28;20725;-84
2022/07/18 03:06:00;;;;;;;3.73;2.87;;;;;;;16.22;71.96;98895.38;4113297;28;20703;-85
2022/07/18 03:08:04;;;;;;;4.23;2.87;;;;;;;16.18;70.81;98893.06;4128659;28;20657;-85
2022/07/18 03:10:08;;;;;;;5.13;3.50;;;;;;;16.14;72.22;98894.25;4126816;28;20644;-85
2022/07/18 03:12:11;;;;;;;5.87;3.13;;;;;;;16.10;71.74;98890.16;4122937;28;20764;-85
2022/07/18 03:14:14;;;;;;;4.57;3.03;;;;;;;16.08;71.57;98894.72;4124075;28;20667;-85
2022/07/18 03:16:19;;;;;;;5.00;3.60;;;;;;;16.09;72.16;98893.78;4123365;28;20647;-84
2022/07/18 03:18:24;;;;;;;4.30;3.07;;;;;;;16.08;71.87;98887.66;4128813;28;21276;-85
2022/07/18 03:20:27;;;;;;;5.80;3.47;;;;;;;16.10;72.43;98896.28;4111579;28;20648;-85
2022/07/18 03:22:33;;;;;;;3.90;3.30;;;;;;;16.11;72.58;98894.50;4109945;28;21068;-85
2022/07/18 03:24:36;;;;;;;4.57;3.30;;;;;;;16.12;71.61;98888.28;4125142;28;20683;-84
2022/07/18 03:26:39;;;;;;;6.43;3.57;;;;;;;16.12;72.27;98890.91;4110690;28;20658;-84
2022/07/18 03:28:42;;;;;;;7.40;3.13;;;;;;;16.14;72.19;98894.25;4125543;28;20648;-84
2022/07/18 03:30:45;;;;;;;6.13;3.07;;;;;;;16.15;70.76;98895.94;4092635;28;20664;-85
2022/07/18 03:32:50;;;;;;;3.77;3.20;;;;;;;16.15;72.27;98890.66;4108431;28;21313;-85
2022/07/18 03:34:53;;;;;;;3.77;3.10;;;;;;;16.13;71.77;98898.69;4128063;28;20813;-85
2022/07/18 03:36:56;;;;;;;3.70;3.30;;;;;;;16.12;72.39;98893.53;4126741;28;20667;-85
2022/07/18 03:38:59;;;;;;;4.77;3.20;;;;;;;16.09;71.23;98897.25;4111201;28;20994;-84
2022/07/18 03:41:02;;;;;;;6.23;3.00;;;;;;;16.06;71.81;98888.75;4094837;28;20653;-85
2022/07/18 03:43:06;;;;;;;4.47;3.30;;;;;;;16.07;71.98;98890.41;4094702;28;20712;-85
2022/07/18 03:45:10;;;;;;;3.53;3.03;;;;;;;16.06;71.95;98896.66;4123361;28;21051;-84
2022/07/18 03:47:13;;;;;;;4.20;3.30;;;;;;;16.04;71.55;98901.16;4125565;28;20655;-85
2022/07/18 03:49:17;;;;;;;6.17;3.70;;;;;;;16.01;71.78;98901.41;4128150;28;20664;-84
2022/07/18 03:51:20;;;;;;;5.20;3.20;;;;;;;16.01;72.07;98898.78;4107916;28;20651;-85
2022/07/18 03:53:23;;;;;;;6.93;3.80;;;;;;;15.99;72.90;98897.22;4127045;28;21028;-85
2022/07/18 03:55:27;;;;;;;4.70;3.40;;;;;;;15.96;73.24;98897.47;4126542;28;20663;-85
2022/07/18 03:57:30;;;;;;;4.17;3.03;;;;;;;15.94;73.29;98887.06;4129174;28;20732;-85
2022/07/18 03:59:35;;;;;;;9.20;3.70;;;;;;;15.91;72.73;98886.47;4109066;28;20666;-85
2022/07/18 04:01:38;;;;;;;4.83;3.07;;;;;;;15.89;72.45;98885.72;4094326;28;20652;-85
2022/07/18 04:03:41;;;;;;;4.90;3.53;;;;;;;15.89;74.09;98889.22;4109162;28;20653;-84
2022/07/18 04:05:46;;;;;;;7.53;4.07;;;;;;;15.93;71.54;98890.63;4112000;28;21289;-85
2022/07/18 04:07:49;;;;;;;4.87;3.33;;;;;;;15.95;73.07;98891.38;4109970;28;21056;-85
2022/07/18 04:09:52;;;;;;;4.47;3.43;;;;;;;15.97;73.10;98894.72;4122596;28;20696;-85
2022/07/18 04:11:56;;;;;;;6.13;3.40;;;;;;;16.01;73.36;98895.31;4109384;28;20747;-85
2022/07/18 04:14:00;;;;;;;4.33;3.37;;;;;;;16.03;72.41;98891.63;4122368;28;20659;-85
2022/07/18 04:16:03;;;;;;;4.90;3.30;;;;;;;16.04;73.64;98896.75;4123546;28;20640;-84
2022/07/18 04:18:07;;;;;;;5.50;3.33;;;;;;;16.04;73.03;98894.13;4107507;28;20650;-85
2022/07/18 04:20:12;;;;;;;6.47;3.60;;;;;;;16.06;73.83;98892.22;4110596;28;20752;-85
2022/07/18 04:22:16;;;;;;;4.47;3.30;;;;;;;16.09;71.77;98896.41;4124729;28;20643;-85
2022/07/18 04:24:19;;;;;;;4.77;3.30;;;;;;;16.13;73.29;98893.41;4123081;28;20767;-85
2022/07/18 04:26:22;;;;;;;4.03;3.57;;;;;;;16.15;72.95;98895.94;4110249;28;20658;-85
2022/07/18 04:28:26;;;;;;;4.07;3.50;;;;;;;16.19;70.77;98889.44;4126459;28;20655;-84
2022/07/18 04:30:29;;;;;;;5.00;3.77;;;;;;;16.21;69.24;98893.66;4110272;28;20652;-84
2022/07/18 04:32:32;;;;;;;6.57;3.73;;;;;;;16.22;68.18;98891.88;4124698;28;20741;-85
2022/07/18 04:34:35;;;;;;;6.87;4.00;;;;;;;16.24;71.16;98888.19;4109348;28;20670;-85
2022/07/18 04:36:38;;;;;;;7.93;3.80;;;;;;;16.30;70.32;98886.88;4110200;28;21396;-85
2022/07/18 04:38:43;;;;;;;5.03;3.77;;;;;;;16.36;70.84;98889.84;4104715;28;20659;-85
2022/07/18 04:40:46;;;;;;;7.53;3.30;;;;;;;16.40;69.67;98893.06;4111137;28;20735;-85
2022/07/18 04:42:49;;;;;;;4.63;3.47;;;;;;;16.44;70.51;98897.16;4124160;28;20666;-85
2022/07/18 04:44:52;;;;;;;4.77;4.27;;;;;;;16.49;71.08;98900.25;4124653;28;20689;-85
2022/07/18 04:46:55;;;;;;;9.53;3.40;;;;;;;16.52;69.88;98896.44;4126783;28;20659;-84
2022/07/18 04:48:58;;;;;;;3.93;3.53;;;;;;;16.55;71.92;98898.81;4109321;28;20635;-85
2022/07/18 04:51:01;;;;;;;4.87;3.40;;;;;;;16.61;73.14;98906.25;4124417;28;20683;-85
2022/07/18 04:53:04;;;;;;;6.17;4.07;;;;;;;16.65;73.23;98910.28;4124706;28;21026;-85
2022/07/18 04:55:10;;;;;;;4.00;3.60;;;;;;;16.68;73.89;98910.03;4125469;28;20719;-85
2022/07/18 04:57:14;;;;;;;5.60;3.27;;;;;;;16.73;73.62;98910.53;4109893;28;20661;-85
2022/07/18 04:59:17;;;;;;;6.23;4.27;;;;;;;16.76;72.35;98902.34;4126641;28;20675;-85
2022/07/18 05:01:20;;;;;;;5.50;3.70;;;;;;;16.81;70.45;98902.84;4109026;28;20663;-85
2022/07/18 05:03:24;;;;;;;6.27;3.83;;;;;;;16.83;71.96;98900.91;4108488;28;21276;-85
2022/07/18 05:05:28;;;;;;;5.53;3.83;;;;;;;16.89;70.97;98899.59;4106831;28;21151;-85
2022/07/18 05:07:39;;;;;;;8.30;3.60;;;;;;;16.95;70.63;98905.19;4090274;28;21126;-85
2022/07/18 05:09:43;;;;;;;6.43;4.47;;;;;;;17.01;69.99;98909.97;4107462;28;21488;-85
2022/07/18 05:11:48;;;;;;;5.23;3.80;;;;;;;17.07;68.42;98915.56;4120020;28;20655;-85
2022/07/18 05:13:51;;;;;;;5.67;3.53;;;;;;;17.13;67.59;98909.81;4123377;28;20661;-85
2022/07/18 05:15:54;;;;;;;5.00;4.00;;;;;;;17.15;68.67;98922.88;4107503;28;20653;-88
2022/07/18 05:17:57;;;;;;;4.93;3.23;;;;;;;17.19;67.76;98913.75;4122590;28;20661;-84
2022/07/18 05:20:00;;;;;;;7.70;4.30;;;;;;;17.27;69.26;98922.72;4123919;28;20660;-84
2022/07/18 05:22:03;;;;;;;4.90;3.70;;;;;;;17.35;69.67;98922.09;4125362;28;20652;-84
2022/07/18 05:24:07;;;;;;;5.10;3.80;;;;;;;17.43;71.40;98917.06;4124425;28;20648;-84
2022/07/18 05:26:10;;;;;;;5.90;3.43;;;;;;;17.48;69.22;98919.19;4121269;28;20640;-84
2022/07/18 05:28:15;;;;;;;5.27;3.23;;;;;;;17.56;68.87;98913.25;4121883;28;20717;-84
2022/07/18 05:30:19;;;;;;;5.20;3.23;;;;;;;17.62;68.19;98907.47;4120611;28;20689;-84
2022/07/18 05:32:22;;;;;;;8.20;3.27;;;;;;;17.70;67.11;98916.44;4108247;28;20637;-85
2022/07/18 05:34:25;;;;;;;4.23;3.23;;;;;;;17.80;66.90;98909.41;4105109;28;20701;-84
2022/07/18 05:36:28;;;;;;;5.20;3.70;;;;;;;17.91;67.67;98909.34;4107331;28;20754;-84
2022/07/18 05:38:32;;;;;;;6.33;3.67;;;;;;;18.01;67.73;98912.84;4122344;28;20670;-84
2022/07/18 05:40:35;;;;;;;4.30;3.17;;;;;;;18.11;66.38;98917.22;4109653;28;20723;-84
2022/07/18 05:42:38;;;;;;;5.10;4.00;;;;;;;18.24;67.32;98927.63;4124259;28;20669;-84
2022/07/18 05:44:59;;;;;;;3.80;2.87;;;;;;;18.39;66.67;98918.38;4107083;28;20674;-84
2022/07/18 05:47:02;;;;;;;3.13;2.60;;;;;;;18.54;64.54;98921.38;4111124;28;20653;-82
2022/07/18 05:49:06;;;;;;;4.80;3.00;;;;;;;18.70;63.32;98929.66;4106515;28;21117;-82
2022/07/18 05:51:09;;;;;;;7.07;3.20;;;;;;;18.90;62.64;98926.09;4109672;28;21174;-82
2022/07/18 05:53:13;;;;;;;5.27;3.90;;;;;;;19.18;62.40;98922.66;4121274;28;20681;-83
2022/07/18 05:55:16;;;;;;;8.63;3.20;;;;;;;19.60;62.28;98924.91;4105148;28;21273;-83
2022/07/18 05:57:19;;;;;;;4.37;3.30;;;;;;;19.92;61.95;98921.00;4103398;28;20699;-83
2022/07/18 05:59:22;;;;;;;4.87;3.40;;;;;;;20.27;61.59;98921.22;4107438;28;21059;-82
2022/07/18 06:01:27;;;;;;;5.40;3.20;;;;;;;20.59;61.83;98933.09;4112369;28;20642;-82
2022/07/18 06:03:30;;;;;;;5.30;3.37;;;;;;;20.93;60.49;98935.88;4094998;28;20649;-82
2022/07/18 06:05:34;;;;;;;8.33;3.20;;;;;;;21.30;60.58;98941.94;4127013;28;20741;-83
2022/07/18 06:07:37;;;;;;;5.60;3.60;;;;;;;21.61;59.35;98935.31;4116355;28;20655;-83
2022/07/18 06:09:40;;;;;;;6.40;3.03;;;;;;;21.88;58.19;98925.41;4107197;28;20684;-84
2022/07/18 06:11:43;;;;;;;4.87;3.47;;;;;;;22.20;58.21;98928.31;4106278;28;21016;-84
2022/07/18 06:13:46;;;;;;;4.77;3.23;;;;;;;22.44;58.94;98927.47;4126203;28;20665;-83
2022/07/18 06:15:49;;;;;;;5.27;3.20;;;;;;;22.63;55.48;98931.72;4113461;28;20650;-83
2022/07/18 06:17:54;;;;;;;4.60;3.27;;;;;;;22.72;55.31;98926.31;4110276;28;20645;-83
2022/07/18 06:19:57;;;;;;;3.70;3.00;;;;;;;23.03;58.05;98936.25;4122205;28;20644;-83
2022/07/18 06:22:00;;;;;;;5.20;3.10;;;;;;;23.36;56.35;98932.69;4104137;28;20649;-83
2022/07/18 06:24:04;;;;;;;3.33;3.03;;;;;;;23.63;54.73;98933.25;4110949;28;22380;-84
2022/07/18 06:26:07;;;;;;;6.87;3.20;;;;;;;23.91;55.77;98932.78;4127228;28;21270;-84
2022/07/18 06:28:10;;;;;;;4.23;3.30;;;;;;;24.16;55.74;98932.63;4129139;28;20632;-84
2022/07/18 06:30:14;;;;;;;4.27;3.20;;;;;;;24.35;53.63;98926.94;4122451;28;20654;-84
2022/07/18 06:32:17;;;;;;;6.20;2.87;;;;;;;24.53;53.77;98924.91;4105987;28;20689;-84
2022/07/18 06:34:22;;;;;;;5.70;3.10;;;;;;;24.74;53.61;98931.31;4125008;28;20663;-85
2022/07/18 06:36:25;;;;;;;3.50;2.93;;;;;;;24.93;52.53;98935.44;4124198;28;21252;-84
2022/07/18 06:38:28;;;;;;;3.70;2.47;;;;;;;25.14;51.73;98934.69;4127697;28;20671;-83
2022/07/18 06:40:31;;;;;;;5.10;3.20;;;;;;;25.33;51.31;98936.94;4111234;28;21494;-84
2022/07/18 06:42:35;;;;;;;4.37;2.70;;;;;;;25.51;50.41;98933.97;4114776;28;20679;-84
2022/07/18 06:44:39;;;;;;;4.73;3.00;;;;;;;25.75;49.94;98929.31;4091034;28;20696;-85
2022/07/18 06:46:42;;;;;;;4.23;2.90;;;;;;;25.90;53.19;98928.34;4113896;28;20640;-84
2022/07/18 06:48:46;;;;;;;4.80;2.83;;;;;;;26.05;49.60;98929.22;4094467;28;20668;-84
2022/07/18 06:50:50;;;;;;;9.93;3.07;;;;;;;26.22;51.07;98928.06;4107889;28;20670;-85
2022/07/18 06:52:53;;;;;;;4.23;2.70;;;;;;;26.35;50.04;98931.00;4107795;28;20653;-84
2022/07/18 06:54:57;;;;;;;4.50;2.80;;;;;;;26.53;51.59;98926.94;4125902;28;20695;-84
2022/07/18 06:57:00;;;;;;;3.60;2.73;;;;;;;26.68;49.37;98925.13;4128908;28;20651;-84
2022/07/18 06:59:03;;;;;;;5.10;2.80;;;;;;;26.84;50.15;98923.06;4125226;28;20862;-84
2022/07/18 07:01:06;;;;;;;3.67;2.97;;;;;;;27.08;49.12;98922.81;4128215;28;20663;-85
2022/07/18 07:03:10;;;;;;;5.03;2.57;;;;;;;27.10;47.52;98924.28;4110762;28;20647;-85
2022/07/18 07:05:14;;;;;;;2.90;2.30;;;;;;;27.21;48.65;98928.31;4105132;28;20644;-85
2022/07/18 07:07:19;;;;;;;4.57;2.60;;;;;;;27.33;47.39;98922.28;4110464;28;21038;-84
2022/07/18 07:09:22;;;;;;;5.23;2.77;;;;;;;27.60;48.18;98919.75;4094702;28;20660;-85
2022/07/18 07:11:25;;;;;;;4.20;2.60;;;;;;;27.82;46.77;98918.72;4106539;28;22369;-85
2022/07/18 07:13:29;;;;;;;5.33;2.30;;;;;;;27.95;45.32;98915.31;4126520;28;20657;-84
2022/07/18 07:15:32;;;;;;;5.00;2.33;;;;;;;28.04;44.89;98918.50;4113787;28;20675;-84
2022/07/18 07:17:35;;;;;;;6.03;2.47;;;;;;;28.09;45.03;98916.09;4110391;28;20679;-85
2022/07/18 07:19:38;;;;;;;3.23;2.23;;;;;;;28.24;47.74;98900.72;4122729;28;20664;-85
2022/07/18 07:21:41;;;;;;;3.10;2.43;;;;;;;28.37;44.84;98914.25;4110955;28;20666;-85
2022/07/18 07:23:46;;;;;;;3.77;2.27;;;;;;;28.56;44.95;98908.19;4114368;28;21225;-84
2022/07/18 07:25:49;;;;;;;3.70;2.20;;;;;;;28.76;44.70;98917.22;4126553;28;20738;-85
2022/07/18 07:27:52;;;;;;;4.50;2.80;;;;;;;28.84;45.47;98915.22;4109325;28;20684;-85
2022/07/18 07:29:55;;;;;;;5.20;2.30;;;;;;;28.88;44.95;98908.38;4110696;28;20657;-85
2022/07/18 07:31:59;;;;;;;3.20;2.60;;;;;;;28.97;44.55;98907.19;4108976;28;20652;-85
2022/07/18 07:34:03;;;;;;;2.90;2.30;;;;;;;29.20;45.86;98907.72;4114012;28;20654;-85
2022/07/18 07:36:08;;;;;;;4.17;2.57;;;;;;;29.50;47.47;98915.31;4123720;28;21333;-85
2022/07/18 07:38:17;;;;;;;3.40;2.20;;;;;;;29.72;45.26;98917.59;4127075;28;21267;-84
2022/07/18 07:40:24;;;;;;;4.27;2.40;;;;;;;29.81;44.87;98910.22;4123597;28;20650;-85
2022/07/18 07:42:27;;;;;;;2.90;2.30;;;;;;;29.90;45.90;98909.78;4104608;28;20632;-86
2022/07/18 07:44:30;;;;;;;4.23;2.40;;;;;;;30.00;45.26;98911.03;4106903;28;20644;-85
2022/07/18 07:46:33;;;;;;;5.13;2.47;;;;;;;30.13;46.93;98913.75;4123503;28;20664;-86
2022/07/18 07:48:36;;;;;;;2.63;1.80;;;;;;;30.16;44.26;98907.09;4110060;28;20658;-86
2022/07/18 07:50:39;;;;;;;3.37;2.33;;;;;;;30.29;45.11;98907.13;4107319;28;20655;-85
2022/07/18 07:52:42;;;;;;;5.43;2.30;;;;;;;30.42;47.16;98903.41;4109557;28;20654;-85
2022/07/18 07:54:46;;;;;;;2.87;2.30;;;;;;;30.49;44.13;98898.84;4110437;28;20672;-86
2022/07/18 07:56:50;;;;;;;3.83;2.40;;;;;;;30.61;44.36;98907.09;4111928;28;20711;-86
2022/07/18 07:58:53;;;;;;;2.83;2.30;;;;;;;30.70;45.30;98908.53;4124636;28;21241;-86
2022/07/18 08:00:57;;;;;;;3.07;2.33;;;;;;;30.91;44.38;98905.59;4109608;28;20641;-84
2022/07/18 08:03:02;;;;;;;2.97;1.90;;;;;;;31.02;44.98;98901.22;4107490;28;20654;-84
2022/07/18 08:05:06;;;;;;;4.60;2.10;;;;;;;31.23;45.38;98906.31;4109445;28;20691;-84
2022/07/18 08:07:10;;;;;;;2.20;1.70;;;;;;;31.38;45.19;98906.00;4106547;28;20668;-84
2022/07/18 08:09:14;;;;;;;2.60;2.00;;;;;;;31.54;44.99;98909.91;4121677;28;20746;-84
2022/07/18 08:11:17;;;;;;;3.10;2.23;;;;;;;31.67;43.74;98900.91;4106741;28;20715;-84
2022/07/18 08:13:22;;;;;;;5.70;2.23;;;;;;;31.74;44.51;98898.97;4110578;28;20732;-84
2022/07/18 08:15:26;;;;;;;3.50;2.27;;;;;;;31.88;44.82;98892.47;4089172;29;20765;-84
2022/07/18 08:17:29;;;;;;;2.20;2.00;;;;;;;32.05;44.77;98897.94;4125843;28;20661;-85
2022/07/18 08:19:32;;;;;;;3.63;2.10;;;;;;;32.10;45.15;98891.88;4090753;28;20652;-85
2022/07/18 08:21:35;;;;;;;2.53;2.10;;;;;;;32.21;42.86;98897.41;4126030;28;20651;-84
2022/07/18 08:23:38;;;;;;;5.33;2.43;;;;;;;32.22;41.94;98898.22;4106204;28;20656;-84
2022/07/18 08:25:45;;;;;;;2.90;1.87;;;;;;;32.32;41.50;98891.25;4104576;28;20652;-83
2022/07/18 08:27:48;;;;;;;5.13;1.90;;;;;;;32.37;41.61;98886.00;4105330;28;20663;-84
2022/07/18 08:29:52;;;;;;;2.77;2.00;;;;;;;32.37;42.38;98884.16;4107935;28;20685;-83
2022/07/18 08:32:10;;;;;;;2.47;2.13;;;;;;;32.45;42.02;98888.47;4110728;28;20656;-83
2022/07/18 08:34:15;;;;;;;2.67;1.90;;;;;;;32.57;43.25;98886.69;4125685;28;21166;-83
2022/07/18 08:36:20;;;;;;;2.50;2.20;;;;;;;32.61;42.83;98890.59;4105650;28;20671;-82
2022/07/18 08:38:23;;;;;;;3.20;2.10;;;;;;;32.72;43.13;98881.75;4123455;28;20673;-82
2022/07/18 08:40:26;;;;;;;3.07;2.13;;;;;;;32.89;43.73;98887.16;4108298;28;20653;-82
2022/07/18 08:42:29;;;;;;;2.60;1.77;;;;;;;32.94;41.95;98881.09;4108391;28;20711;-83
2022/07/18 08:44:33;;;;;;;3.13;2.17;;;;;;;32.99;42.21;98884.78;4125890;28;21052;-83
2022/07/18 08:46:38;;;;;;;2.50;2.20;;;;;;;33.03;41.73;98880.59;4107902;28;20738;-83
2022/07/18 08:48:42;;;;;;;2.67;2.10;;;;;;;33.07;40.07;98887.16;4123824;28;20660;-83
2022/07/18 08:50:46;;;;;;;5.27;2.13;;;;;;;32.81;41.06;98885.78;4122604;28;20651;-83
2022/07/18 08:52:50;;;;;;;4.83;2.20;;;;;;;32.74;42.66;98877.75;4110991;28;20656;-83
2022/07/18 08:54:57;;;;;;;3.47;2.10;;;;;;;32.86;41.64;98882.19;4125508;28;20655;-83
2022/07/18 08:57:02;;;;;;;3.13;2.77;;;;;;;32.88;41.34;98880.09;4094321;28;20707;-83
2022/07/18 08:59:05;;;;;;;2.87;2.30;;;;;;;32.96;43.71;98879.81;4110602;28;21015;-83
2022/07/18 09:01:08;;;;;;;3.43;2.17;;;;;;;33.08;43.19;98879.91;4106420;28;20641;-83
2022/07/18 09:03:14;;;;;;;2.60;2.23;;;;;;;33.18;42.42;98885.59;4113801;28;20679;-83
2022/07/18 09:05:19;;;;;;;3.90;2.00;;;;;;;33.19;41.62;98879.94;4128206;28;20773;-83
2022/07/18 09:07:38;;;;;;;3.10;2.23;;;;;;;33.29;43.23;98896.47;4126744;28;20754;-83
2022/07/18 09:09:53;;;;;;;6.73;2.37;;;;;;;33.35;42.32;98879.31;4125931;28;21306;-84
2022/07/18 09:11:58;;;;;;;3.33;2.30;;;;;;;33.40;40.32;98890.28;4108633;28;20632;-83
2022/07/18 09:14:01;;;;;;;2.87;2.00;;;;;;;33.48;42.82;98884.56;4123597;28;20646;-84
2022/07/18 09:16:06;;;;;;;2.93;2.33;;;;;;;33.55;40.82;98879.91;4112695;28;21258;-83
2022/07/18 09:18:09;;;;;;;2.90;2.57;;;;;;;33.51;40.04;98876.84;4094036;28;20775;-83
2022/07/18 09:20:34;;;;;;;2.63;2.00;;;;;;;33.44;39.78;98876.09;4124733;28;20743;-83
2022/07/18 09:22:39;;;;;;;2.13;1.93;;;;;;;33.42;39.54;98880.88;4105510;28;21043;-83
2022/07/18 09:25:00;;;;;;;3.13;1.80;;;;;;;33.49;41.59;98872.69;4124246;28;20647;-82
2022/07/18 09:27:03;;;;;;;3.27;2.10;;;;;;;33.52;41.11;98877.66;4125661;28;20667;-82
2022/07/18 09:29:06;;;;;;;2.37;2.17;;;;;;;33.51;39.67;98874.13;4123096;28;20675;-83
2022/07/18 09:31:29;;;;;;;3.07;2.10;;;;;;;33.59;39.96;98870.25;4111539;28;20695;-83
2022/07/18 09:33:33;;;;;;;4.00;2.23;;;;;;;33.63;40.12;98876.88;4125427;28;20651;-83
2022/07/18 09:35:43;;;;;;;2.80;2.20;;;;;;;33.70;41.06;98864.06;4109227;28;20665;-83
2022/07/18 09:38:01;;;;;;;3.10;2.37;;;;;;;33.68;37.46;98869.72;4111677;28;20651;-84
2022/07/18 09:40:18;;;;;;;2.90;2.33;;;;;;;33.62;37.20;98867.06;4111485;28;20667;-83
2022/07/18 09:42:22;;;;;;;2.73;2.20;;;;;;;33.58;38.80;98864.00;4114031;28;20656;-83
2022/07/18 09:44:25;;;;;;;2.53;2.33;;;;;;;33.75;39.58;98872.31;4126518;28;21292;-84
2022/07/18 09:46:28;;;;;;;3.00;2.50;;;;;;;33.83;38.81;98867.41;4116874;28;20664;-83